sensor_id;sensor_type;location;lat;lon;timestamp;temperature;humidity
14779;DHT22;7481;53.750;10.570;2022-10-16T00:01:14;15.70;99.90
14779;DHT22;7481;53.750;10.570;2022-10-16T00:04:02;14.00;99.90
14779;DHT22;7481;53.750;10.570;2022-10-16T00:06:49;14.00;99.90
14779;DHT22;7481;53.750;10.570;2022-10-16T00:09:36;13.90;99.90
14779;DHT22;7481;53.750;10.570;2022-10-16T00:12:23;13.90;99.90
14779;DHT22;7481;53.750;10.570;2022-10-16T00:15:10;13.80;99.90
14779;DHT22;7481;53.750;10.570;2022-10-16T00:17:57;13.80;99.90
14779;DHT22;7481;53.750;10.570;2022-10-16T00:20:44;13.80;99.90
14779;DHT22;7481;53.750;10.570;2022-10-16T00:23:31;13.70;99.90
14779;DHT22;7481;53.750;10.570;2022-10-16T00:26:19;13.70;99.90
14779;DHT22;7481;53.750;10.570;2022-10-16T00:29:06;13.70;99.90
14779;DHT22;7481;53.750;10.570;2022-10-16T00:31:53;13.70;99.90
14779;DHT22;7481;53.750;10.570;2022-10-16T00:34:40;13.60;99.90
14779;DHT22;7481;53.750;10.570;2022-10-16T00:37:27;13.60;99.90
14779;DHT22;7481;53.750;10.570;2022-10-16T00:40:14;13.60;99.90
14779;DHT22;7481;53.750;10.570;2022-10-16T00:43:01;13.60;99.90
14779;DHT22;7481;53.750;10.570;2022-10-16T00:45:48;13.50;99.90
14779;DHT22;7481;53.750;10.570;2022-10-16T00:48:35;13.50;99.90
14779;DHT22;7481;53.750;10.570;2022-10-16T00:51:25;13.40;99.90
14779;DHT22;7481;53.750;10.570;2022-10-16T00:54:24;13.40;99.90
14779;DHT22;7481;53.750;10.570;2022-10-16T00:57:11;13.40;99.90
14779;DHT22;7481;53.750;10.570;2022-10-16T01:00:06;13.40;99.90
14779;DHT22;7481;53.750;10.570;2022-10-16T01:02:55;13.40;99.90
14779;DHT22;7481;53.750;10.570;2022-10-16T01:05:48;13.30;99.90
14779;DHT22;7481;53.750;10.570;2022-10-16T01:11:55;13.30;99.90
14779;DHT22;7481;53.750;10.570;2022-10-16T01:14:53;13.20;99.90
14779;DHT22;7481;53.750;10.570;2022-10-16T01:17:49;13.20;99.90
14779;DHT22;7481;53.750;10.570;2022-10-16T01:20:44;13.20;99.90
14779;DHT22;7481;53.750;10.570;2022-10-16T01:30:21;13.10;99.90
14779;DHT22;7481;53.750;10.570;2022-10-16T01:36:03;13.10;99.90
14779;DHT22;7481;53.750;10.570;2022-10-16T01:38:54;13.00;99.90
14779;DHT22;7481;53.750;10.570;2022-10-16T01:41:51;13.00;99.90
14779;DHT22;7481;53.750;10.570;2022-10-16T01:44:39;13.00;99.90
14779;DHT22;7481;53.750;10.570;2022-10-16T01:47:30;12.90;99.90
14779;DHT22;7481;53.750;10.570;2022-10-16T01:50:19;12.90;99.90
14779;DHT22;7481;53.750;10.570;2022-10-16T01:53:10;12.90;99.90
14779;DHT22;7481;53.750;10.570;2022-10-16T01:55:59;12.80;99.90
14779;DHT22;7481;53.750;10.570;2022-10-16T01:58:53;12.80;99.90
14779;DHT22;7481;53.750;10.570;2022-10-16T02:01:49;12.80;99.90
14779;DHT22;7481;53.750;10.570;2022-10-16T02:04:42;12.80;99.90
14779;DHT22;7481;53.750;10.570;2022-10-16T02:07:30;12.80;99.90
14779;DHT22;7481;53.750;10.570;2022-10-16T02:10:17;12.70;99.90
14779;DHT22;7481;53.750;10.570;2022-10-16T02:13:26;12.70;99.90
14779;DHT22;7481;53.750;10.570;2022-10-16T02:16:14;12.60;99.90
14779;DHT22;7481;53.750;10.570;2022-10-16T02:19:02;12.70;99.90
14779;DHT22;7481;53.750;10.570;2022-10-16T02:21:59;12.60;99.90
14779;DHT22;7481;53.750;10.570;2022-10-16T02:28:04;12.60;99.90
14779;DHT22;7481;53.750;10.570;2022-10-16T02:31:01;12.60;99.90
14779;DHT22;7481;53.750;10.570;2022-10-16T02:33:50;12.60;99.90
14779;DHT22;7481;53.750;10.570;2022-10-16T02:36:39;12.60;99.90
14779;DHT22;7481;53.750;10.570;2022-10-16T02:39:28;12.60;99.90
14779;DHT22;7481;53.750;10.570;2022-10-16T02:42:15;12.60;99.90
14779;DHT22;7481;53.750;10.570;2022-10-16T02:45:06;12.60;99.90
14779;DHT22;7481;53.750;10.570;2022-10-16T02:47:53;12.60;99.90
14779;DHT22;7481;53.750;10.570;2022-10-16T02:50:40;12.60;99.90
14779;DHT22;7481;53.750;10.570;2022-10-16T02:53:27;12.60;99.90
14779;DHT22;7481;53.750;10.570;2022-10-16T02:56:13;12.60;99.90
14779;DHT22;7481;53.750;10.570;2022-10-16T02:59:00;12.50;99.90
14779;DHT22;7481;53.750;10.570;2022-10-16T03:01:47;12.50;99.90
14779;DHT22;7481;53.750;10.570;2022-10-16T03:04:35;12.50;99.90
14779;DHT22;7481;53.750;10.570;2022-10-16T03:07:22;12.50;99.90
14779;DHT22;7481;53.750;10.570;2022-10-16T03:10:09;12.50;99.90
14779;DHT22;7481;53.750;10.570;2022-10-16T03:12:56;12.50;99.90
14779;DHT22;7481;53.750;10.570;2022-10-16T03:15:43;12.50;99.90
14779;DHT22;7481;53.750;10.570;2022-10-16T03:18:30;12.40;99.90
14779;DHT22;7481;53.750;10.570;2022-10-16T03:21:17;12.40;99.90
14779;DHT22;7481;53.750;10.570;2022-10-16T03:24:04;12.30;99.90
14779;DHT22;7481;53.750;10.570;2022-10-16T03:26:52;12.30;99.90
14779;DHT22;7481;53.750;10.570;2022-10-16T03:29:39;12.20;99.90
14779;DHT22;7481;53.750;10.570;2022-10-16T03:32:25;12.20;99.90
14779;DHT22;7481;53.750;10.570;2022-10-16T03:35:13;12.20;99.90
14779;DHT22;7481;53.750;10.570;2022-10-16T03:38:00;12.10;99.90
14779;DHT22;7481;53.750;10.570;2022-10-16T03:40:47;12.00;99.90
14779;DHT22;7481;53.750;10.570;2022-10-16T03:43:34;12.00;99.90
14779;DHT22;7481;53.750;10.570;2022-10-16T03:46:21;12.00;99.90
14779;DHT22;7481;53.750;10.570;2022-10-16T03:49:08;12.00;99.90
14779;DHT22;7481;53.750;10.570;2022-10-16T03:51:55;11.90;99.90
14779;DHT22;7481;53.750;10.570;2022-10-16T03:54:42;11.90;99.90
14779;DHT22;7481;53.750;10.570;2022-10-16T03:57:29;11.90;99.90
14779;DHT22;7481;53.750;10.570;2022-10-16T04:00:16;11.80;99.90
14779;DHT22;7481;53.750;10.570;2022-10-16T04:03:03;11.80;99.90
14779;DHT22;7481;53.750;10.570;2022-10-16T04:05:50;11.80;99.90
14779;DHT22;7481;53.750;10.570;2022-10-16T04:08:37;11.80;99.90
14779;DHT22;7481;53.750;10.570;2022-10-16T04:11:25;11.80;99.90
14779;DHT22;7481;53.750;10.570;2022-10-16T04:14:12;11.80;99.90
14779;DHT22;7481;53.750;10.570;2022-10-16T04:16:59;11.80;99.90
14779;DHT22;7481;53.750;10.570;2022-10-16T04:19:46;11.90;99.90
14779;DHT22;7481;53.750;10.570;2022-10-16T04:22:33;11.80;99.90
14779;DHT22;7481;53.750;10.570;2022-10-16T04:25:20;11.90;99.90
14779;DHT22;7481;53.750;10.570;2022-10-16T04:28:07;11.90;99.90
14779;DHT22;7481;53.750;10.570;2022-10-16T04:30:54;11.80;99.90
14779;DHT22;7481;53.750;10.570;2022-10-16T04:33:44;11.80;99.90
14779;DHT22;7481;53.750;10.570;2022-10-16T04:36:31;11.80;99.90
14779;DHT22;7481;53.750;10.570;2022-10-16T04:39:18;11.80;99.90
14779;DHT22;7481;53.750;10.570;2022-10-16T04:42:05;11.80;99.90
14779;DHT22;7481;53.750;10.570;2022-10-16T04:44:52;11.80;99.90
14779;DHT22;7481;53.750;10.570;2022-10-16T04:47:39;11.80;99.90
14779;DHT22;7481;53.750;10.570;2022-10-16T04:50:26;11.80;99.90
14779;DHT22;7481;53.750;10.570;2022-10-16T04:53:14;11.80;99.90
14779;DHT22;7481;53.750;10.570;2022-10-16T04:56:01;11.80;99.90
14779;DHT22;7481;53.750;10.570;2022-10-16T04:58:47;11.80;99.90
14779;DHT22;7481;53.750;10.570;2022-10-16T05:01:35;11.80;99.90
14779;DHT22;7481;53.750;10.570;2022-10-16T05:04:22;11.80;99.90
14779;DHT22;7481;53.750;10.570;2022-10-16T05:07:09;11.80;99.90
14779;DHT22;7481;53.750;10.570;2022-10-16T05:09:56;11.70;99.90
14779;DHT22;7481;53.750;10.570;2022-10-16T05:12:43;11.70;99.90
14779;DHT22;7481;53.750;10.570;2022-10-16T05:15:30;11.10;99.90
14779;DHT22;7481;53.750;10.570;2022-10-16T05:18:17;11.60;99.90
14779;DHT22;7481;53.750;10.570;2022-10-16T05:21:04;11.50;99.90
14779;DHT22;7481;53.750;10.570;2022-10-16T05:23:53;11.50;99.90
14779;DHT22;7481;53.750;10.570;2022-10-16T05:26:41;11.50;99.90
14779;DHT22;7481;53.750;10.570;2022-10-16T05:29:28;11.50;99.90
14779;DHT22;7481;53.750;10.570;2022-10-16T05:32:16;11.50;99.90
14779;DHT22;7481;53.750;10.570;2022-10-16T05:35:03;11.40;99.90
14779;DHT22;7481;53.750;10.570;2022-10-16T05:37:55;11.40;99.90
14779;DHT22;7481;53.750;10.570;2022-10-16T05:40:43;11.40;99.90
14779;DHT22;7481;53.750;10.570;2022-10-16T05:43:31;11.40;99.90
14779;DHT22;7481;53.750;10.570;2022-10-16T05:46:18;11.40;99.90
14779;DHT22;7481;53.750;10.570;2022-10-16T05:49:05;11.40;99.90
14779;DHT22;7481;53.750;10.570;2022-10-16T05:51:52;11.30;99.90
14779;DHT22;7481;53.750;10.570;2022-10-16T05:54:39;11.30;99.90
14779;DHT22;7481;53.750;10.570;2022-10-16T05:57:26;11.30;99.90
14779;DHT22;7481;53.750;10.570;2022-10-16T06:00:14;11.30;99.90
14779;DHT22;7481;53.750;10.570;2022-10-16T06:03:00;11.30;99.90
14779;DHT22;7481;53.750;10.570;2022-10-16T06:05:48;11.30;99.90
14779;DHT22;7481;53.750;10.570;2022-10-16T06:08:35;11.30;99.90
14779;DHT22;7481;53.750;10.570;2022-10-16T06:11:25;11.20;99.90
14779;DHT22;7481;53.750;10.570;2022-10-16T06:14:12;11.30;99.90
14779;DHT22;7481;53.750;10.570;2022-10-16T06:17:00;11.30;99.90
14779;DHT22;7481;53.750;10.570;2022-10-16T06:19:47;11.40;99.90
14779;DHT22;7481;53.750;10.570;2022-10-16T06:22:34;11.40;99.90
14779;DHT22;7481;53.750;10.570;2022-10-16T06:25:21;11.50;99.90
14779;DHT22;7481;53.750;10.570;2022-10-16T06:28:07;11.60;99.90
14779;DHT22;7481;53.750;10.570;2022-10-16T06:31:02;11.70;99.90
14779;DHT22;7481;53.750;10.570;2022-10-16T06:33:54;11.70;99.90
14779;DHT22;7481;53.750;10.570;2022-10-16T06:36:41;11.80;99.90
14779;DHT22;7481;53.750;10.570;2022-10-16T06:39:30;11.80;99.90
14779;DHT22;7481;53.750;10.570;2022-10-16T06:42:17;11.80;99.90
14779;DHT22;7481;53.750;10.570;2022-10-16T06:45:04;11.80;99.90
14779;DHT22;7481;53.750;10.570;2022-10-16T06:47:51;11.80;99.90
14779;DHT22;7481;53.750;10.570;2022-10-16T06:50:38;11.80;99.90
14779;DHT22;7481;53.750;10.570;2022-10-16T06:53:26;11.90;99.90
14779;DHT22;7481;53.750;10.570;2022-10-16T06:56:19;11.90;99.90
14779;DHT22;7481;53.750;10.570;2022-10-16T06:59:06;11.90;99.90
14779;DHT22;7481;53.750;10.570;2022-10-16T07:01:53;12.00;99.90
14779;DHT22;7481;53.750;10.570;2022-10-16T07:04:40;12.10;99.90
14779;DHT22;7481;53.750;10.570;2022-10-16T07:07:27;12.20;99.90
14779;DHT22;7481;53.750;10.570;2022-10-16T07:10:14;12.30;99.90
14779;DHT22;7481;53.750;10.570;2022-10-16T07:13:01;12.40;99.90
14779;DHT22;7481;53.750;10.570;2022-10-16T07:15:48;12.50;99.90
14779;DHT22;7481;53.750;10.570;2022-10-16T07:18:35;12.50;99.90
14779;DHT22;7481;53.750;10.570;2022-10-16T07:21:23;12.60;99.90
14779;DHT22;7481;53.750;10.570;2022-10-16T07:24:14;12.60;99.90
14779;DHT22;7481;53.750;10.570;2022-10-16T07:27:02;12.60;99.90
14779;DHT22;7481;53.750;10.570;2022-10-16T07:29:49;12.70;99.90
14779;DHT22;7481;53.750;10.570;2022-10-16T07:32:36;12.70;99.90
14779;DHT22;7481;53.750;10.570;2022-10-16T07:35:23;12.70;99.90
14779;DHT22;7481;53.750;10.570;2022-10-16T07:38:10;12.70;99.90
14779;DHT22;7481;53.750;10.570;2022-10-16T07:40:59;12.80;99.90
14779;DHT22;7481;53.750;10.570;2022-10-16T07:43:53;12.80;99.90
14779;DHT22;7481;53.750;10.570;2022-10-16T07:46:41;12.80;99.90
14779;DHT22;7481;53.750;10.570;2022-10-16T07:49:28;12.90;99.90
14779;DHT22;7481;53.750;10.570;2022-10-16T07:52:15;12.90;99.90
14779;DHT22;7481;53.750;10.570;2022-10-16T07:55:02;13.10;99.90
14779;DHT22;7481;53.750;10.570;2022-10-16T07:57:49;13.30;99.90
14779;DHT22;7481;53.750;10.570;2022-10-16T08:00:37;13.50;99.90
14779;DHT22;7481;53.750;10.570;2022-10-16T08:03:25;13.70;99.90
14779;DHT22;7481;53.750;10.570;2022-10-16T08:06:12;13.90;99.90
14779;DHT22;7481;53.750;10.570;2022-10-16T08:08:59;14.10;99.90
14779;DHT22;7481;53.750;10.570;2022-10-16T08:11:46;14.10;99.90
14779;DHT22;7481;53.750;10.570;2022-10-16T08:14:33;14.20;99.90
14779;DHT22;7481;53.750;10.570;2022-10-16T08:17:20;14.20;99.90
14779;DHT22;7481;53.750;10.570;2022-10-16T08:20:08;14.20;99.90
14779;DHT22;7481;53.750;10.570;2022-10-16T08:22:55;14.20;99.90
14779;DHT22;7481;53.750;10.570;2022-10-16T08:25:42;14.10;99.90
14779;DHT22;7481;53.750;10.570;2022-10-16T08:28:29;14.10;99.90
14779;DHT22;7481;53.750;10.570;2022-10-16T08:31:16;14.20;99.90
14779;DHT22;7481;53.750;10.570;2022-10-16T08:34:08;14.20;99.90
14779;DHT22;7481;53.750;10.570;2022-10-16T08:36:55;14.30;99.90
14779;DHT22;7481;53.750;10.570;2022-10-16T08:39:42;14.40;99.90
14779;DHT22;7481;53.750;10.570;2022-10-16T08:48:46;15.10;99.90
14779;DHT22;7481;53.750;10.570;2022-10-16T08:51:35;15.00;99.90
14779;DHT22;7481;53.750;10.570;2022-10-16T08:54:32;15.20;99.90
14779;DHT22;7481;53.750;10.570;2022-10-16T08:57:25;15.50;99.90
14779;DHT22;7481;53.750;10.570;2022-10-16T09:00:14;16.10;99.90
14779;DHT22;7481;53.750;10.570;2022-10-16T09:03:17;16.90;99.90
14779;DHT22;7481;53.750;10.570;2022-10-16T09:12:58;21.30;99.90
14779;DHT22;7481;53.750;10.570;2022-10-16T09:22:08;22.60;99.90
14779;DHT22;7481;53.750;10.570;2022-10-16T09:25:00;23.60;99.90
14779;DHT22;7481;53.750;10.570;2022-10-16T09:27:53;24.50;99.90
14779;DHT22;7481;53.750;10.570;2022-10-16T09:30:40;24.30;99.90
14779;DHT22;7481;53.750;10.570;2022-10-16T09:33:35;24.60;99.90
14779;DHT22;7481;53.750;10.570;2022-10-16T09:36:25;24.70;99.90
14779;DHT22;7481;53.750;10.570;2022-10-16T09:39:13;24.30;99.90
14779;DHT22;7481;53.750;10.570;2022-10-16T09:42:00;24.30;99.90
14779;DHT22;7481;53.750;10.570;2022-10-16T09:44:49;24.80;99.90
14779;DHT22;7481;53.750;10.570;2022-10-16T09:47:39;24.70;99.90
14779;DHT22;7481;53.750;10.570;2022-10-16T09:50:29;24.70;99.90
14779;DHT22;7481;53.750;10.570;2022-10-16T09:53:16;24.00;99.90
14779;DHT22;7481;53.750;10.570;2022-10-16T09:56:05;23.90;99.90
14779;DHT22;7481;53.750;10.570;2022-10-16T09:59:02;23.70;99.90
14779;DHT22;7481;53.750;10.570;2022-10-16T10:01:51;23.80;99.90
14779;DHT22;7481;53.750;10.570;2022-10-16T10:04:43;23.90;99.90
14779;DHT22;7481;53.750;10.570;2022-10-16T10:07:42;24.50;99.90
14779;DHT22;7481;53.750;10.570;2022-10-16T10:10:32;24.00;99.90
14779;DHT22;7481;53.750;10.570;2022-10-16T10:13:22;24.20;99.90
14779;DHT22;7481;53.750;10.570;2022-10-16T10:16:10;24.50;99.90
14779;DHT22;7481;53.750;10.570;2022-10-16T10:18:59;24.90;99.90
14779;DHT22;7481;53.750;10.570;2022-10-16T10:21:46;24.40;99.90
14779;DHT22;7481;53.750;10.570;2022-10-16T10:24:34;23.80;99.90
14779;DHT22;7481;53.750;10.570;2022-10-16T10:27:25;23.90;99.90
14779;DHT22;7481;53.750;10.570;2022-10-16T10:36:34;25.10;99.90
14779;DHT22;7481;53.750;10.570;2022-10-16T10:39:30;24.00;99.90
14779;DHT22;7481;53.750;10.570;2022-10-16T10:45:22;24.30;99.90
14779;DHT22;7481;53.750;10.570;2022-10-16T10:51:22;24.30;99.90
14779;DHT22;7481;53.750;10.570;2022-10-16T10:57:25;24.50;99.90
14779;DHT22;7481;53.750;10.570;2022-10-16T11:06:19;23.50;99.90
14779;DHT22;7481;53.750;10.570;2022-10-16T11:09:41;23.10;99.90
14779;DHT22;7481;53.750;10.570;2022-10-16T11:12:38;22.30;99.90
14779;DHT22;7481;53.750;10.570;2022-10-16T11:15:33;22.60;99.90
14779;DHT22;7481;53.750;10.570;2022-10-16T11:18:32;22.40;99.90
14779;DHT22;7481;53.750;10.570;2022-10-16T11:21:26;22.10;99.90
14779;DHT22;7481;53.750;10.570;2022-10-16T11:27:53;22.40;99.90
14779;DHT22;7481;53.750;10.570;2022-10-16T11:30:55;21.80;99.90
14779;DHT22;7481;53.750;10.570;2022-10-16T11:37:17;21.70;99.90
14779;DHT22;7481;53.750;10.570;2022-10-16T11:40:19;22.20;99.90
14779;DHT22;7481;53.750;10.570;2022-10-16T11:43:30;21.90;99.90
14779;DHT22;7481;53.750;10.570;2022-10-16T11:46:21;21.80;99.90
14779;DHT22;7481;53.750;10.570;2022-10-16T11:49:16;22.40;99.90
14779;DHT22;7481;53.750;10.570;2022-10-16T11:52:17;22.20;99.90
14779;DHT22;7481;53.750;10.570;2022-10-16T11:55:33;21.40;99.90
14779;DHT22;7481;53.750;10.570;2022-10-16T12:01:33;20.40;99.90
14779;DHT22;7481;53.750;10.570;2022-10-16T12:04:43;20.10;99.90
14779;DHT22;7481;53.750;10.570;2022-10-16T12:07:39;19.80;99.90
14779;DHT22;7481;53.750;10.570;2022-10-16T12:10:29;19.90;99.90
14779;DHT22;7481;53.750;10.570;2022-10-16T12:13:37;19.80;99.90
14779;DHT22;7481;53.750;10.570;2022-10-16T12:16:25;19.20;99.90
14779;DHT22;7481;53.750;10.570;2022-10-16T12:19:19;19.00;99.90
14779;DHT22;7481;53.750;10.570;2022-10-16T12:22:16;19.10;99.90
14779;DHT22;7481;53.750;10.570;2022-10-16T12:25:05;19.50;99.90
14779;DHT22;7481;53.750;10.570;2022-10-16T12:28:07;19.80;99.90
14779;DHT22;7481;53.750;10.570;2022-10-16T12:31:06;19.50;99.90
14779;DHT22;7481;53.750;10.570;2022-10-16T12:34:00;19.10;99.90
14779;DHT22;7481;53.750;10.570;2022-10-16T12:36:48;18.90;99.90
14779;DHT22;7481;53.750;10.570;2022-10-16T12:39:35;18.50;99.90
14779;DHT22;7481;53.750;10.570;2022-10-16T12:42:32;18.20;99.90
14779;DHT22;7481;53.750;10.570;2022-10-16T12:45:31;18.10;99.90
14779;DHT22;7481;53.750;10.570;2022-10-16T12:48:21;18.20;99.90
14779;DHT22;7481;53.750;10.570;2022-10-16T12:51:34;18.30;99.90
14779;DHT22;7481;53.750;10.570;2022-10-16T12:54:27;18.50;99.90
14779;DHT22;7481;53.750;10.570;2022-10-16T12:57:43;18.60;99.90
14779;DHT22;7481;53.750;10.570;2022-10-16T13:03:59;18.50;99.90
14779;DHT22;7481;53.750;10.570;2022-10-16T13:10:34;18.30;99.90
14779;DHT22;7481;53.750;10.570;2022-10-16T13:20:12;18.30;99.90
14779;DHT22;7481;53.750;10.570;2022-10-16T13:23:42;18.20;99.90
14779;DHT22;7481;53.750;10.570;2022-10-16T13:29:16;18.00;99.90
14779;DHT22;7481;53.750;10.570;2022-10-16T13:32:09;18.10;99.90
14779;DHT22;7481;53.750;10.570;2022-10-16T13:34:56;18.00;99.90
14779;DHT22;7481;53.750;10.570;2022-10-16T13:37:43;18.00;99.90
14779;DHT22;7481;53.750;10.570;2022-10-16T13:40:30;17.80;99.90
14779;DHT22;7481;53.750;10.570;2022-10-16T13:44:08;17.60;99.90
14779;DHT22;7481;53.750;10.570;2022-10-16T13:46:35;17.40;99.90
14779;DHT22;7481;53.750;10.570;2022-10-16T13:49:22;17.30;99.90
14779;DHT22;7481;53.750;10.570;2022-10-16T13:52:20;17.30;99.90
14779;DHT22;7481;53.750;10.570;2022-10-16T13:55:17;17.30;99.90
14779;DHT22;7481;53.750;10.570;2022-10-16T13:58:12;17.20;99.90
14779;DHT22;7481;53.750;10.570;2022-10-16T14:01:03;17.40;99.90
14779;DHT22;7481;53.750;10.570;2022-10-16T14:03:52;17.50;99.90
14779;DHT22;7481;53.750;10.570;2022-10-16T14:06:48;17.50;99.90
14779;DHT22;7481;53.750;10.570;2022-10-16T14:09:36;17.50;99.90
14779;DHT22;7481;53.750;10.570;2022-10-16T14:12:23;17.50;99.90
14779;DHT22;7481;53.750;10.570;2022-10-16T14:15:18;17.40;99.90
14779;DHT22;7481;53.750;10.570;2022-10-16T14:18:05;17.40;99.90
14779;DHT22;7481;53.750;10.570;2022-10-16T14:20:52;17.40;99.90
14779;DHT22;7481;53.750;10.570;2022-10-16T14:23:43;17.30;99.90
14779;DHT22;7481;53.750;10.570;2022-10-16T14:26:41;17.20;99.90
14779;DHT22;7481;53.750;10.570;2022-10-16T14:29:36;17.20;99.90
14779;DHT22;7481;53.750;10.570;2022-10-16T14:32:23;17.10;99.90
14779;DHT22;7481;53.750;10.570;2022-10-16T14:35:35;17.10;99.90
14779;DHT22;7481;53.750;10.570;2022-10-16T14:38:23;17.20;99.90
14779;DHT22;7481;53.750;10.570;2022-10-16T14:41:10;17.20;99.90
14779;DHT22;7481;53.750;10.570;2022-10-16T14:44:02;17.20;99.90
14779;DHT22;7481;53.750;10.570;2022-10-16T14:46:49;17.20;99.90
14779;DHT22;7481;53.750;10.570;2022-10-16T14:49:36;17.20;99.90
14779;DHT22;7481;53.750;10.570;2022-10-16T14:52:23;17.20;99.90
14779;DHT22;7481;53.750;10.570;2022-10-16T14:55:11;17.10;99.90
14779;DHT22;7481;53.750;10.570;2022-10-16T14:57:58;17.10;99.90
14779;DHT22;7481;53.750;10.570;2022-10-16T15:00:47;17.10;99.90
14779;DHT22;7481;53.750;10.570;2022-10-16T15:03:34;17.00;99.90
14779;DHT22;7481;53.750;10.570;2022-10-16T15:06:21;16.90;99.90
14779;DHT22;7481;53.750;10.570;2022-10-16T15:09:09;16.80;99.90
14779;DHT22;7481;53.750;10.570;2022-10-16T15:11:56;16.80;99.90
14779;DHT22;7481;53.750;10.570;2022-10-16T15:14:43;16.80;99.90
14779;DHT22;7481;53.750;10.570;2022-10-16T15:17:30;16.70;99.90
14779;DHT22;7481;53.750;10.570;2022-10-16T15:20:17;16.60;99.90
14779;DHT22;7481;53.750;10.570;2022-10-16T15:23:14;16.60;99.90
14779;DHT22;7481;53.750;10.570;2022-10-16T15:26:01;16.50;99.90
14779;DHT22;7481;53.750;10.570;2022-10-16T15:28:48;16.40;99.90
14779;DHT22;7481;53.750;10.570;2022-10-16T15:31:35;16.40;99.90
14779;DHT22;7481;53.750;10.570;2022-10-16T15:34:22;16.40;99.90
14779;DHT22;7481;53.750;10.570;2022-10-16T15:37:09;16.40;99.90
14779;DHT22;7481;53.750;10.570;2022-10-16T15:39:58;16.40;99.90
14779;DHT22;7481;53.750;10.570;2022-10-16T15:42:45;16.30;99.90
14779;DHT22;7481;53.750;10.570;2022-10-16T15:45:33;16.20;99.90
14779;DHT22;7481;53.750;10.570;2022-10-16T15:48:20;16.10;99.90
14779;DHT22;7481;53.750;10.570;2022-10-16T15:51:07;16.00;99.90
14779;DHT22;7481;53.750;10.570;2022-10-16T15:53:56;15.90;99.90
14779;DHT22;7481;53.750;10.570;2022-10-16T15:56:43;15.80;99.90
14779;DHT22;7481;53.750;10.570;2022-10-16T15:59:32;15.70;99.90
14779;DHT22;7481;53.750;10.570;2022-10-16T16:02:19;15.60;99.90
14779;DHT22;7481;53.750;10.570;2022-10-16T16:05:07;15.50;99.90
14779;DHT22;7481;53.750;10.570;2022-10-16T16:07:54;15.40;99.90
14779;DHT22;7481;53.750;10.570;2022-10-16T16:10:41;15.30;99.90
14779;DHT22;7481;53.750;10.570;2022-10-16T16:13:28;15.20;99.90
14779;DHT22;7481;53.750;10.570;2022-10-16T16:16:16;15.20;99.90
14779;DHT22;7481;53.750;10.570;2022-10-16T16:19:04;15.10;99.90
14779;DHT22;7481;53.750;10.570;2022-10-16T16:21:57;14.90;99.90
14779;DHT22;7481;53.750;10.570;2022-10-16T16:24:44;14.80;99.90
14779;DHT22;7481;53.750;10.570;2022-10-16T16:27:31;14.60;99.90
14779;DHT22;7481;53.750;10.570;2022-10-16T16:30:20;14.50;99.90
14779;DHT22;7481;53.750;10.570;2022-10-16T16:33:13;14.40;99.90
14779;DHT22;7481;53.750;10.570;2022-10-16T16:36:02;14.30;99.90
14779;DHT22;7481;53.750;10.570;2022-10-16T16:38:49;14.20;99.90
14779;DHT22;7481;53.750;10.570;2022-10-16T16:41:37;14.10;99.90
14779;DHT22;7481;53.750;10.570;2022-10-16T16:44:24;14.00;99.90
14779;DHT22;7481;53.750;10.570;2022-10-16T16:47:11;14.00;99.90
14779;DHT22;7481;53.750;10.570;2022-10-16T16:49:58;13.90;99.90
14779;DHT22;7481;53.750;10.570;2022-10-16T16:52:46;13.80;99.90
14779;DHT22;7481;53.750;10.570;2022-10-16T16:55:33;13.70;99.90
14779;DHT22;7481;53.750;10.570;2022-10-16T16:58:20;13.70;99.90
14779;DHT22;7481;53.750;10.570;2022-10-16T17:01:09;13.70;99.90
14779;DHT22;7481;53.750;10.570;2022-10-16T17:04:12;13.60;99.90
14779;DHT22;7481;53.750;10.570;2022-10-16T17:07:01;13.60;99.90
14779;DHT22;7481;53.750;10.570;2022-10-16T17:09:48;13.60;99.90
14779;DHT22;7481;53.750;10.570;2022-10-16T17:12:35;13.50;99.90
14779;DHT22;7481;53.750;10.570;2022-10-16T17:15:22;13.50;99.90
14779;DHT22;7481;53.750;10.570;2022-10-16T17:18:09;13.40;99.90
14779;DHT22;7481;53.750;10.570;2022-10-16T17:21:00;13.40;99.90
14779;DHT22;7481;53.750;10.570;2022-10-16T17:23:51;13.30;99.90
14779;DHT22;7481;53.750;10.570;2022-10-16T17:26:38;13.30;99.90
14779;DHT22;7481;53.750;10.570;2022-10-16T17:29:27;13.20;99.90
14779;DHT22;7481;53.750;10.570;2022-10-16T17:32:14;13.20;99.90
14779;DHT22;7481;53.750;10.570;2022-10-16T17:35:01;13.10;99.90
14779;DHT22;7481;53.750;10.570;2022-10-16T17:37:48;13.10;99.90
14779;DHT22;7481;53.750;10.570;2022-10-16T17:40:37;12.90;99.90
14779;DHT22;7481;53.750;10.570;2022-10-16T17:43:24;12.90;99.90
14779;DHT22;7481;53.750;10.570;2022-10-16T17:46:13;12.80;99.90
14779;DHT22;7481;53.750;10.570;2022-10-16T17:49:01;12.80;99.90
14779;DHT22;7481;53.750;10.570;2022-10-16T17:51:52;12.80;99.90
14779;DHT22;7481;53.750;10.570;2022-10-16T17:54:39;12.70;99.90
14779;DHT22;7481;53.750;10.570;2022-10-16T17:57:26;12.60;99.90
14779;DHT22;7481;53.750;10.570;2022-10-16T18:00:13;12.50;99.90
14779;DHT22;7481;53.750;10.570;2022-10-16T18:03:00;12.40;99.90
14779;DHT22;7481;53.750;10.570;2022-10-16T18:05:48;12.40;99.90
14779;DHT22;7481;53.750;10.570;2022-10-16T18:08:35;12.30;99.90
14779;DHT22;7481;53.750;10.570;2022-10-16T18:11:26;12.30;99.90
14779;DHT22;7481;53.750;10.570;2022-10-16T18:14:15;12.20;99.90
14779;DHT22;7481;53.750;10.570;2022-10-16T18:17:02;12.20;99.90
14779;DHT22;7481;53.750;10.570;2022-10-16T18:19:49;12.10;99.90
14779;DHT22;7481;53.750;10.570;2022-10-16T18:22:36;12.10;99.90
14779;DHT22;7481;53.750;10.570;2022-10-16T18:25:23;12.10;99.90
14779;DHT22;7481;53.750;10.570;2022-10-16T18:28:10;12.00;99.90
14779;DHT22;7481;53.750;10.570;2022-10-16T18:31:06;12.00;99.90
14779;DHT22;7481;53.750;10.570;2022-10-16T18:33:54;12.00;99.90
14779;DHT22;7481;53.750;10.570;2022-10-16T18:36:41;12.00;99.90
14779;DHT22;7481;53.750;10.570;2022-10-16T18:39:31;11.90;99.90
14779;DHT22;7481;53.750;10.570;2022-10-16T18:42:18;11.90;99.90
14779;DHT22;7481;53.750;10.570;2022-10-16T18:45:06;11.80;99.90
14779;DHT22;7481;53.750;10.570;2022-10-16T18:47:53;11.80;99.90
14779;DHT22;7481;53.750;10.570;2022-10-16T18:50:40;11.80;99.90
14779;DHT22;7481;53.750;10.570;2022-10-16T18:53:27;11.90;99.90
14779;DHT22;7481;53.750;10.570;2022-10-16T18:56:16;11.80;99.90
14779;DHT22;7481;53.750;10.570;2022-10-16T18:59:05;11.80;99.90
14779;DHT22;7481;53.750;10.570;2022-10-16T19:01:53;11.90;99.90
14779;DHT22;7481;53.750;10.570;2022-10-16T19:04:40;11.80;99.90
14779;DHT22;7481;53.750;10.570;2022-10-16T19:07:27;11.80;99.90
14779;DHT22;7481;53.750;10.570;2022-10-16T19:10:14;11.70;99.90
14779;DHT22;7481;53.750;10.570;2022-10-16T19:13:01;11.70;99.90
14779;DHT22;7481;53.750;10.570;2022-10-16T19:15:50;11.70;99.90